Etusivu
METAR-TAF:

METAR-TAF

Lentoasemat :

Bamako, Mali

Senoun kansainvälinen lentoasema

Leveyspiiri: 12-32N, Pituuspiiri: 007-57W, korkeus merenpinnasta: 380 m

Tämänhetkinen sää

Tämä raportti tehtiin 21 minuuttia sitten, kello 00.30 UTC
Tuuli 4 kn idästä
Lämpötila 32°C
Kosteus 14%
Ilmanpaine 1010 hPa
Näkyvyys 10 km tai enemmän
ei pilviä alle 1500 m:ssä eikä cumulonimbus-pilviä

METAR: GABS 300030Z 08004KT CAVOK 32/01 Q1010 NOSIG

Aika: 00:51 (00:51 UTC)

Sääennuste

Tämä raportti tehtiin 1 tunti ja 51 minuuttia sitten, kello 23.00 UTC
Ennuste voimassa 30. päivästä klo 00 UTC - 31. päivään klo 06 UTC
Tuuli 6 kn idästä/koillisesta
Näkyvyys: 8000 m
Todennäköisyys 40% :
Ajoittain
30. päivästä klo 00 UTC - 30. päivään klo 06 UTC
Tuuli 10 kn etelästä
Ajoittain
30. päivästä klo 08 UTC - 30. päivään klo 12 UTC
Tuuli 10 kn luoteesta

TAF: GABS 292300Z 3000/3106 06006KT 8000 NSC PROB40 TEMPO 3000/3006 18010KT TEMPO 3008/3012 32010KT

Säähavainnot ja -ennusteet yli 4000 lentoasemalta (METAR- ja TAF-raportit).

Käytössä olevat sääasemat on merkitty karttaan keltaisilla ja punaisilla pisteillä.

Aseta hiiri pisteen päälle nähdäksesi sääaseman nimen.

Klikkaa sitten nähdäksesi säähavainnot ja -ennusteet.

Kartan vaihtaminen: klikkaa mustalla rastilla varustettuja vihreitä pisteitä, niin voit zoomata sisään; viivalla varustettua vihreää pistettä, niin voit zoomata ulos tai vihreitä nuolia, niin pääset viereisille kartoille.


METAR-TAF: